createdAt,value
2019-02-20T00:02:51.901Z,93.77
2019-02-20T00:05:56.214Z,93.63
2019-02-20T00:09:00.500Z,93.77
2019-02-20T00:12:06.719Z,93.71
2019-02-20T00:15:11.047Z,93.63
2019-02-20T00:18:15.296Z,93.33
2019-02-20T00:21:19.590Z,93.10
2019-02-20T00:24:24.023Z,93.22
2019-02-20T00:27:28.293Z,93.34
2019-02-20T00:30:32.739Z,93.36
2019-02-20T00:33:37.033Z,93.44
2019-02-20T00:36:41.305Z,93.31
2019-02-20T00:39:45.663Z,93.32
2019-02-20T00:42:49.941Z,93.43
2019-02-20T00:46:03.792Z,93.08
2019-02-20T00:49:21.966Z,93.35
2019-02-20T00:52:32.913Z,93.28
2019-02-20T00:55:37.276Z,93.28
2019-02-20T00:58:41.586Z,93.40
2019-02-20T01:01:45.853Z,93.59
2019-02-20T01:04:51.137Z,93.59
2019-02-20T01:07:55.417Z,93.69
2019-02-20T01:11:04.515Z,93.89
2019-02-20T01:14:08.977Z,93.97
2019-02-20T01:17:13.670Z,94.04
2019-02-20T01:20:18.087Z,93.94
2019-02-20T01:23:22.342Z,94.00
2019-02-20T01:26:27.831Z,93.98
2019-02-20T01:29:32.318Z,94.24
2019-02-20T01:32:37.758Z,94.53
2019-02-20T01:35:47.367Z,94.69
2019-02-20T01:38:51.645Z,94.98
2019-02-20T01:41:56.082Z,95.32
2019-02-20T01:45:00.359Z,95.27
2019-02-20T01:48:04.831Z,95.32
2019-02-20T01:51:09.145Z,95.33
2019-02-20T01:54:13.442Z,95.26
2019-02-20T01:57:17.857Z,95.19
2019-02-20T02:00:22.158Z,94.98
2019-02-20T02:03:26.841Z,94.76
2019-02-20T02:06:31.120Z,94.58
2019-02-20T02:09:36.598Z,94.68
2019-02-20T02:12:40.943Z,94.97
2019-02-20T02:15:45.469Z,95.16
2019-02-20T02:18:51.477Z,95.29
2019-02-20T02:21:55.801Z,95.22
2019-02-20T02:25:00.153Z,95.27
2019-02-20T02:28:04.832Z,95.27
2019-02-20T02:31:09.219Z,95.45
2019-02-20T02:34:14.603Z,95.60
2019-02-20T02:37:18.927Z,95.58
2019-02-20T02:40:23.205Z,95.66
2019-02-20T02:43:28.594Z,95.75
2019-02-20T02:46:33.276Z,95.70
2019-02-20T02:49:37.547Z,95.81
2019-02-20T02:52:41.883Z,95.76
2019-02-20T02:55:46.149Z,95.76
2019-02-20T02:58:50.438Z,95.69
2019-02-20T03:01:55.911Z,95.46
2019-02-20T03:05:00.528Z,95.39
2019-02-20T03:08:04.974Z,95.38
2019-02-20T03:11:09.260Z,95.29
2019-02-20T03:14:13.529Z,95.27
2019-02-20T03:17:18.909Z,95.29
2019-02-20T03:20:23.196Z,95.17
2019-02-20T03:23:27.482Z,95.15
2019-02-20T03:26:34.544Z,95.10
2019-02-20T03:29:38.975Z,95.12
2019-02-20T03:32:43.260Z,95.16
2019-02-20T03:35:47.545Z,95.12
2019-02-20T03:38:51.908Z,95.09
2019-02-20T03:41:57.714Z,95.03
2019-02-20T03:45:02.005Z,94.98
2019-02-20T03:48:06.302Z,94.73
2019-02-20T03:51:10.589Z,94.82
2019-02-20T03:54:17.362Z,94.77
2019-02-20T03:57:24.257Z,94.63
2019-02-20T04:00:28.532Z,94.35
2019-02-20T04:03:32.836Z,94.11
2019-02-20T04:06:37.137Z,94.10
2019-02-20T04:09:44.295Z,94.04
2019-02-20T04:12:51.345Z,93.95
2019-02-20T04:15:55.851Z,93.81
2019-02-20T04:19:00.380Z,93.77
2019-02-20T04:22:10.167Z,93.59
2019-02-20T04:25:14.575Z,93.58
2019-02-20T04:28:18.855Z,93.65
2019-02-20T04:31:23.219Z,93.78
2019-02-20T04:34:30.264Z,93.87
2019-02-20T04:37:34.553Z,93.95
2019-02-20T04:40:38.862Z,93.97
2019-02-20T04:43:43.131Z,94.14
2019-02-20T04:46:47.661Z,94.30
2019-02-20T04:49:51.999Z,94.44
2019-02-20T04:52:56.278Z,94.59
2019-02-20T04:56:00.551Z,94.63
2019-02-20T04:59:04.992Z,94.58
2019-02-20T05:02:09.380Z,94.62
2019-02-20T05:05:13.770Z,94.65
2019-02-20T05:08:18.045Z,94.70
2019-02-20T05:11:22.324Z,94.79
2019-02-20T05:14:26.577Z,94.73
2019-02-20T05:17:30.956Z,94.54
2019-02-20T05:20:40.725Z,94.58
2019-02-20T05:23:45.017Z,94.53
2019-02-20T05:26:51.917Z,94.51
2019-02-20T05:29:57.323Z,94.42
2019-02-20T05:33:01.643Z,94.28
2019-02-20T05:36:06.018Z,94.18
2019-02-20T05:39:10.279Z,94.21
2019-02-20T05:42:14.572Z,94.22
2019-02-20T05:45:18.863Z,94.19
2019-02-20T05:48:23.140Z,94.28
2019-02-20T05:51:27.444Z,94.29
2019-02-20T05:54:34.534Z,94.25
2019-02-20T05:57:38.114Z,94.15
2019-02-20T06:00:42.407Z,94.09
2019-02-20T06:03:46.682Z,94.07
2019-02-20T06:06:50.976Z,94.03
2019-02-20T06:09:58.501Z,93.88
2019-02-20T06:13:04.247Z,93.94
2019-02-20T06:16:08.524Z,94.04
2019-02-20T06:19:15.910Z,94.18
2019-02-20T06:22:20.230Z,94.24
2019-02-20T06:25:26.685Z,94.30
2019-02-20T06:28:30.682Z,94.27
2019-02-20T06:31:34.974Z,94.36
2019-02-20T06:34:39.371Z,94.22
2019-02-20T06:37:43.657Z,94.00
2019-02-20T06:40:47.925Z,93.99
2019-02-20T06:43:53.669Z,94.13
2019-02-20T06:46:57.937Z,94.23
2019-02-20T06:50:04.567Z,94.38
2019-02-20T06:53:09.214Z,94.33
2019-02-20T06:56:13.465Z,94.49
2019-02-20T06:59:17.773Z,94.53
2019-02-20T07:02:25.271Z,94.70
2019-02-20T07:05:42.749Z,94.73
2019-02-20T07:09:06.034Z,94.65
2019-02-20T07:12:35.019Z,94.64
2019-02-20T07:15:56.382Z,94.65
2019-02-20T07:19:37.831Z,94.50
2019-02-20T07:22:55.252Z,94.53
2019-02-20T07:26:58.495Z,94.52
2019-02-20T07:30:04.618Z,94.12
2019-02-20T07:33:08.971Z,94.03
2019-02-20T07:36:13.291Z,93.88
2019-02-20T07:39:17.584Z,93.60
2019-02-20T07:42:21.791Z,93.50
2019-02-20T07:45:26.478Z,93.33
2019-02-20T07:48:30.784Z,93.21
2019-02-20T07:51:35.221Z,93.10
2019-02-20T07:54:39.649Z,92.25
2019-02-20T07:57:43.948Z,92.02
2019-02-20T08:00:48.278Z,92.07
2019-02-20T08:03:52.772Z,92.12
2019-02-20T08:06:57.086Z,92.14
2019-02-20T08:10:01.391Z,92.07
2019-02-20T08:13:05.706Z,91.75
2019-02-20T08:16:09.976Z,91.56
2019-02-20T08:19:14.282Z,91.52
2019-02-20T08:22:18.572Z,91.33
2019-02-20T08:25:23.969Z,91.39
2019-02-20T08:28:28.270Z,91.79
2019-02-20T08:31:32.720Z,91.85
2019-02-20T08:34:37.263Z,91.79
2019-02-20T08:37:41.567Z,91.75
2019-02-20T08:40:45.975Z,91.79
2019-02-20T08:43:50.287Z,91.60
2019-02-20T08:46:54.608Z,91.34
2019-02-20T08:50:00.937Z,90.80
2019-02-20T08:53:05.242Z,90.57
2019-02-20T08:56:09.640Z,90.46
2019-02-20T08:59:13.933Z,89.89
2019-02-20T09:02:18.224Z,89.42
2019-02-20T09:05:25.719Z,88.70
2019-02-20T09:08:30.020Z,88.61
2019-02-20T09:11:36.095Z,88.40
2019-02-20T09:14:40.379Z,87.80
2019-02-20T09:17:44.715Z,87.54
2019-02-20T09:20:49.050Z,87.44
2019-02-20T09:23:53.325Z,87.02
2019-02-20T09:26:57.744Z,87.26
2019-02-20T09:30:02.031Z,87.03
2019-02-20T09:33:06.299Z,87.04
2019-02-20T09:36:10.617Z,86.76
2019-02-20T09:39:32.348Z,86.76
2019-02-20T09:42:38.083Z,86.60
2019-02-20T09:45:44.537Z,85.79
2019-02-20T09:48:48.410Z,85.40
2019-02-20T09:51:54.214Z,84.58
2019-02-20T09:54:58.508Z,84.11
2019-02-20T09:58:02.943Z,84.21
2019-02-20T10:01:07.212Z,84.59
2019-02-20T10:04:11.639Z,85.21
2019-02-20T10:07:15.938Z,85.11
2019-02-20T10:10:20.277Z,84.69
2019-02-20T10:13:24.685Z,84.77
2019-02-20T10:16:30.773Z,84.95
2019-02-20T10:19:35.066Z,84.86
2019-02-20T10:22:39.770Z,85.00
2019-02-20T10:25:46.070Z,85.17
2019-02-20T10:28:50.350Z,85.20
2019-02-20T10:31:56.697Z,85.31
2019-02-20T10:35:00.982Z,84.06
2019-02-20T10:38:07.175Z,84.62
2019-02-20T10:41:11.470Z,85.35
2019-02-20T10:44:17.068Z,84.98
2019-02-20T10:47:21.477Z,84.28
2019-02-20T10:50:25.809Z,84.86
2019-02-20T10:53:30.321Z,84.68
2019-02-20T10:56:36.089Z,84.30
2019-02-20T10:59:40.479Z,83.96
2019-02-20T11:02:44.740Z,84.65
2019-02-20T11:05:49.028Z,84.61
2019-02-20T11:08:53.351Z,84.08
2019-02-20T11:11:57.768Z,84.43
2019-02-20T11:15:02.127Z,85.05
2019-02-20T11:18:06.538Z,85.64
2019-02-20T11:21:12.349Z,86.07
2019-02-20T11:24:17.891Z,86.39
2019-02-20T11:27:25.068Z,86.37
2019-02-20T11:30:29.382Z,85.57
2019-02-20T11:33:35.219Z,86.21
2019-02-20T11:36:40.542Z,86.06
2019-02-20T11:39:46.993Z,86.40
2019-02-20T11:42:51.262Z,85.98
2019-02-20T11:45:57.794Z,85.77
2019-02-20T11:49:02.128Z,85.92
2019-02-20T11:52:09.323Z,86.74
2019-02-20T11:55:14.010Z,86.80
2019-02-20T11:58:24.723Z,87.20
2019-02-20T12:01:28.645Z,87.21
2019-02-20T12:04:32.969Z,87.04
2019-02-20T12:07:37.275Z,87.50
2019-02-20T12:10:41.595Z,87.67
2019-02-20T12:13:45.985Z,87.74
2019-02-20T12:16:53.154Z,88.10
2019-02-20T12:19:58.739Z,87.86
2019-02-20T12:23:03.024Z,87.41
2019-02-20T12:26:07.321Z,87.82
2019-02-20T12:29:13.494Z,88.33
2019-02-20T12:32:19.559Z,89.09
2019-02-20T12:35:23.827Z,88.96
2019-02-20T12:38:28.240Z,89.18
2019-02-20T12:41:33.020Z,89.06
2019-02-20T12:44:38.358Z,88.82
2019-02-20T12:47:43.580Z,88.74
2019-02-20T12:50:48.317Z,89.26
2019-02-20T12:53:52.750Z,88.76
2019-02-20T12:56:57.051Z,89.17
2019-02-20T13:00:01.375Z,88.98
2019-02-20T13:03:08.851Z,88.85
2019-02-20T13:06:13.123Z,88.38
2019-02-20T13:09:19.427Z,87.93
2019-02-20T13:12:23.834Z,87.89
2019-02-20T13:15:28.189Z,88.59
2019-02-20T13:18:32.495Z,88.57
2019-02-20T13:21:36.780Z,88.55
2019-02-20T13:24:41.158Z,89.08
2019-02-20T13:27:45.606Z,89.08
2019-02-20T13:30:49.951Z,89.55
2019-02-20T13:33:54.258Z,89.45
2019-02-20T13:37:01.549Z,89.56
2019-02-20T13:40:06.258Z,89.57
2019-02-20T13:43:10.670Z,89.35
2019-02-20T13:46:15.035Z,89.93
2019-02-20T13:49:19.429Z,90.54
2019-02-20T13:52:23.741Z,90.87
2019-02-20T13:55:34.430Z,90.48
2019-02-20T13:58:35.663Z,90.52
2019-02-20T14:01:40.046Z,90.48
2019-02-20T14:04:44.362Z,90.16
2019-02-20T14:07:48.728Z,89.96
2019-02-20T14:10:53.051Z,90.06
2019-02-20T14:13:57.456Z,90.47
2019-02-20T14:17:01.741Z,90.13
2019-02-20T14:20:06.989Z,90.37
2019-02-20T14:23:11.489Z,90.96
2019-02-20T14:26:15.886Z,90.86
2019-02-20T14:29:20.226Z,90.83
2019-02-20T14:32:26.191Z,90.70
2019-02-20T14:35:31.051Z,91.49
2019-02-20T14:38:35.458Z,91.09
2019-02-20T14:41:40.193Z,91.17
2019-02-20T14:44:44.691Z,91.15
2019-02-20T14:47:49.214Z,91.53
2019-02-20T14:50:55.421Z,91.20
2019-02-20T14:53:59.722Z,91.20
2019-02-20T14:57:04.066Z,91.65
2019-02-20T15:00:09.840Z,91.88
2019-02-20T15:03:27.020Z,92.08
2019-02-20T15:06:34.162Z,92.12
2019-02-20T15:09:38.801Z,91.82
2019-02-20T15:12:43.170Z,91.94
2019-02-20T15:15:47.687Z,92.04
2019-02-20T15:18:55.435Z,91.85
2019-02-20T15:22:00.252Z,91.50
2019-02-20T15:25:04.904Z,90.80
2019-02-20T15:28:10.415Z,91.40
2019-02-20T15:31:15.131Z,91.66
2019-02-20T15:34:20.631Z,91.55
2019-02-20T15:37:25.472Z,91.48
2019-02-20T15:40:30.293Z,91.52
2019-02-20T15:43:34.822Z,91.87
2019-02-20T15:46:39.398Z,92.13
2019-02-20T15:49:43.978Z,92.07
2019-02-20T15:52:48.443Z,92.46
2019-02-20T15:55:53.058Z,93.26
2019-02-20T15:58:57.514Z,93.48
2019-02-20T16:02:02.624Z,93.96
2019-02-20T16:05:08.933Z,94.09
2019-02-20T16:08:13.415Z,94.15
2019-02-20T16:11:17.946Z,94.13
2019-02-20T16:14:22.441Z,94.83
2019-02-20T16:17:26.888Z,95.18
2019-02-20T16:20:33.572Z,95.53
2019-02-20T16:23:37.979Z,95.44
2019-02-20T16:26:43.836Z,95.61
2019-02-20T16:29:48.324Z,95.66
2019-02-20T16:32:53.692Z,95.57
2019-02-20T16:35:58.250Z,95.74
2019-02-20T16:39:02.738Z,95.65
2019-02-20T16:42:07.629Z,95.59
2019-02-20T16:45:18.970Z,95.66
2019-02-20T16:48:23.565Z,95.87
2019-02-20T16:51:27.980Z,95.81
2019-02-20T16:54:32.716Z,95.92
2019-02-20T16:57:37.302Z,96.04
2019-02-20T17:00:41.947Z,96.17
2019-02-20T17:03:46.764Z,96.30
2019-02-20T17:06:51.450Z,96.32
2019-02-20T17:09:56.752Z,96.17
2019-02-20T17:13:02.554Z,96.15
2019-02-20T17:16:07.489Z,95.99
2019-02-20T17:19:12.249Z,96.31
2019-02-20T17:22:18.348Z,96.18
2019-02-20T17:25:23.184Z,95.86
2019-02-20T17:28:27.758Z,95.87
2019-02-20T17:31:33.336Z,96.05
2019-02-20T17:34:37.752Z,96.05
2019-02-20T17:37:42.047Z,95.98
2019-02-20T17:40:46.474Z,95.71
2019-02-20T17:43:50.779Z,96.07
2019-02-20T17:46:55.143Z,96.25
2019-02-20T17:49:59.505Z,96.05
2019-02-20T17:53:03.957Z,96.13
2019-02-20T17:56:09.714Z,96.35
2019-02-20T17:59:14.040Z,96.48
2019-02-20T18:02:21.554Z,96.53
2019-02-20T18:05:27.820Z,96.68
2019-02-20T18:08:32.109Z,96.85
2019-02-20T18:11:36.463Z,96.94
2019-02-20T18:14:40.855Z,97.10
2019-02-20T18:17:45.276Z,97.13
2019-02-20T18:20:49.670Z,97.26
2019-02-20T18:23:53.974Z,97.08
2019-02-20T18:26:58.298Z,97.09
2019-02-20T18:30:02.625Z,96.63
2019-02-20T18:33:06.938Z,96.44
2019-02-20T18:36:11.724Z,96.35
2019-02-20T18:39:16.295Z,96.18
2019-02-20T18:42:20.633Z,95.95
2019-02-20T18:45:24.937Z,96.05
2019-02-20T18:48:29.460Z,96.02
2019-02-20T18:51:33.771Z,96.27
2019-02-20T18:54:38.080Z,96.34
2019-02-20T18:57:42.691Z,96.24
2019-02-20T19:00:46.979Z,96.39
2019-02-20T19:03:51.338Z,96.51
2019-02-20T19:06:55.635Z,96.60
2019-02-20T19:10:02.709Z,96.65
2019-02-20T19:13:59.211Z,96.22
2019-02-20T19:17:53.273Z,95.69
2019-02-20T19:21:21.853Z,95.32
2019-02-20T19:25:15.372Z,95.67
2019-02-20T19:28:43.822Z,95.81
2019-02-20T19:32:28.483Z,95.96
2019-02-20T19:36:05.257Z,95.52
2019-02-20T19:39:27.014Z,95.57
2019-02-20T19:42:58.400Z,95.86
2019-02-20T19:46:42.428Z,96.04
2019-02-20T19:50:41.859Z,95.54
2019-02-20T19:54:26.429Z,95.53
2019-02-20T19:58:10.327Z,95.80
2019-02-20T20:02:27.530Z,95.81
2019-02-20T20:06:06.303Z,95.93
2019-02-20T20:09:45.298Z,96.02
2019-02-20T20:13:15.510Z,96.19
2019-02-20T20:16:46.341Z,95.95
2019-02-20T20:20:01.015Z,96.08
2019-02-20T20:23:45.316Z,95.79
2019-02-20T20:27:31.174Z,95.54
2019-02-20T20:31:09.798Z,95.91
2019-02-20T20:35:10.049Z,95.71
2019-02-20T20:38:52.048Z,96.04
2019-02-20T20:42:34.253Z,96.15
2019-02-20T20:46:26.065Z,96.29
2019-02-20T20:50:11.549Z,96.42
2019-02-20T20:54:03.178Z,96.52
2019-02-20T20:57:44.107Z,96.62
2019-02-20T21:01:14.394Z,96.83
2019-02-20T21:05:20.991Z,96.84
2019-02-20T21:08:44.611Z,96.80
2019-02-20T21:12:29.956Z,97.03
2019-02-20T21:16:11.518Z,97.03
2019-02-20T21:19:59.766Z,97.09
2019-02-20T21:23:45.225Z,97.09
2019-02-20T21:27:25.491Z,97.25
2019-02-20T21:31:19.056Z,97.23
2019-02-20T21:34:53.881Z,97.29
2019-02-20T21:38:31.825Z,97.40
2019-02-20T21:42:05.969Z,97.36
2019-02-20T21:45:56.284Z,97.32
2019-02-20T21:49:32.767Z,97.20
2019-02-20T21:53:20.520Z,97.13
2019-02-20T21:56:37.453Z,96.92
2019-02-20T22:00:15.854Z,96.82
2019-02-20T22:04:03.837Z,96.68
2019-02-20T22:08:01.115Z,96.88
2019-02-20T22:11:27.213Z,97.20
2019-02-20T22:18:26.249Z,97.45
2019-02-20T22:22:41.896Z,97.47
2019-02-20T22:26:14.808Z,97.48
2019-02-20T22:29:56.891Z,97.52
2019-02-20T22:33:41.163Z,97.43
2019-02-20T22:37:27.494Z,97.23
2019-02-20T22:40:51.212Z,96.83
2019-02-20T22:44:51.989Z,96.78
2019-02-20T22:48:30.484Z,96.41
2019-02-20T22:52:02.290Z,96.26
2019-02-20T22:55:58.922Z,95.97
2019-02-20T22:59:18.660Z,95.76
2019-02-20T23:02:51.790Z,95.61
2019-02-20T23:06:48.855Z,95.46
2019-02-20T23:10:37.333Z,95.50
2019-02-20T23:14:22.574Z,95.57
2019-02-20T23:17:27.666Z,95.47
2019-02-20T23:20:31.976Z,95.26
2019-02-20T23:23:36.294Z,95.04
2019-02-20T23:26:42.706Z,95.07
2019-02-20T23:29:47.995Z,95.14
2019-02-20T23:32:52.286Z,95.07
2019-02-20T23:35:56.616Z,95.01
2019-02-20T23:39:00.996Z,94.47
2019-02-20T23:42:05.501Z,94.56
2019-02-20T23:45:09.939Z,94.55
2019-02-20T23:48:14.223Z,94.77
2019-02-20T23:51:18.512Z,94.63
2019-02-20T23:54:23.510Z,94.48
2019-02-20T23:57:27.915Z,94.14
